Time;durP1;ratioP1;P1;durP2;ratioP2;P2;SDS_P1;SDS_P2;PMS_P1;PMS_P2;Temp;Humidity;BMP_temperature;BMP_pressure;BME280_temperature;BME280_humidity;BME280_pressure;Samples;Min_cycle;Max_cycle;Signal;HPM_P1;HPM_P2
2021/03/10 00:02:20;;;;;;;15.95;7.18;;;;;;;;;;5050350;28;20035;-73
2021/03/10 00:04:46;;;;;;;13.18;6.80;;;;;;;;;;5052603;28;20017;-74
2021/03/10 00:07:12;;;;;;;12.48;6.63;;;;;;;;;;5052486;28;20120;-70
2021/03/10 00:09:38;;;;;;;10.75;7.03;;;;;;;;;;5051230;28;20026;-69
2021/03/10 00:12:04;;;;;;;10.95;6.70;;;;;;;;;;5051030;28;20029;-72
2021/03/10 00:14:30;;;;;;;10.63;6.20;;;;;;;;;;5050929;28;20017;-71
2021/03/10 00:16:57;;;;;;;11.27;6.30;;;;;;;;;;5052631;28;20048;-72
2021/03/10 00:19:23;;;;;;;12.48;7.28;;;;;;;;;;5051603;28;20384;-72
2021/03/10 00:21:49;;;;;;;11.27;6.22;;;;;;;;;;5052110;28;20535;-74
2021/03/10 00:24:16;;;;;;;10.65;6.40;;;;;;;;;;5051001;28;20120;-72
2021/03/10 00:26:42;;;;;;;15.45;6.68;;;;;;;;;;5052065;28;20055;-72
2021/03/10 00:29:08;;;;;;;10.27;5.88;;;;;;;;;;5052028;28;20033;-72
2021/03/10 00:31:34;;;;;;;12.10;5.78;;;;;;;;;;5052094;28;20059;-74
2021/03/10 00:34:00;;;;;;;11.60;6.20;;;;;;;;;;5052028;28;20032;-74
2021/03/10 00:36:26;;;;;;;11.88;6.38;;;;;;;;;;5051032;28;20028;-71
2021/03/10 00:38:52;;;;;;;11.00;6.57;;;;;;;;;;5050427;28;20032;-73
2021/03/10 00:41:18;;;;;;;11.18;5.97;;;;;;;;;;5051940;28;20021;-73
2021/03/10 00:43:44;;;;;;;10.48;5.88;;;;;;;;;;5044779;28;20083;-72
2021/03/10 00:46:10;;;;;;;10.38;5.97;;;;;;;;;;5044337;28;20017;-73
2021/03/10 00:48:36;;;;;;;11.50;6.50;;;;;;;;;;5051684;28;20031;-74
2021/03/10 00:51:02;;;;;;;11.20;6.10;;;;;;;;;;5032183;28;20109;-73
2021/03/10 00:53:28;;;;;;;10.43;5.97;;;;;;;;;;5047894;28;20025;-72
2021/03/10 00:55:54;;;;;;;10.15;5.88;;;;;;;;;;5051452;28;20021;-72
2021/03/10 00:58:20;;;;;;;11.00;6.78;;;;;;;;;;5050527;28;20025;-72
2021/03/10 01:00:47;;;;;;;11.02;6.10;;;;;;;;;;5051555;28;20025;-72
2021/03/10 01:03:13;;;;;;;11.90;6.32;;;;;;;;;;5032205;28;20043;-70
2021/03/10 01:05:39;;;;;;;10.68;6.55;;;;;;;;;;5031644;28;20553;-70
2021/03/10 01:08:05;;;;;;;13.02;6.22;;;;;;;;;;5030313;28;20029;-72
2021/03/10 01:10:31;;;;;;;11.07;6.30;;;;;;;;;;5047871;28;20354;-72
2021/03/10 01:12:57;;;;;;;9.20;5.63;;;;;;;;;;5051609;28;20504;-70
2021/03/10 01:15:23;;;;;;;11.25;6.18;;;;;;;;;;5049895;28;20021;-71
2021/03/10 01:17:49;;;;;;;9.88;6.00;;;;;;;;;;5049768;28;20507;-73
2021/03/10 01:20:16;;;;;;;10.75;5.90;;;;;;;;;;5050829;28;20148;-70
2021/03/10 01:22:43;;;;;;;11.05;5.97;;;;;;;;;;5050116;28;20028;-70
2021/03/10 01:25:09;;;;;;;10.70;5.60;;;;;;;;;;5051159;28;20055;-71
2021/03/10 01:27:35;;;;;;;11.40;6.82;;;;;;;;;;5034053;28;20044;-72
2021/03/10 01:30:02;;;;;;;10.48;6.72;;;;;;;;;;5031262;28;20022;-71
2021/03/10 01:32:29;;;;;;;11.02;6.93;;;;;;;;;;5031280;28;20025;-74
2021/03/10 01:34:55;;;;;;;9.82;5.93;;;;;;;;;;5031187;28;20100;-72
2021/03/10 01:37:21;;;;;;;10.30;6.30;;;;;;;;;;5031099;28;20029;-69
2021/03/10 01:39:47;;;;;;;10.40;6.07;;;;;;;;;;5050431;28;20385;-74
2021/03/10 01:42:13;;;;;;;13.07;7.13;;;;;;;;;;5049770;28;20017;-75
2021/03/10 01:44:39;;;;;;;13.55;6.60;;;;;;;;;;5033445;28;20024;-73
2021/03/10 01:47:05;;;;;;;16.83;7.40;;;;;;;;;;5031047;28;20231;-72
2021/03/10 01:49:31;;;;;;;11.77;6.80;;;;;;;;;;5029675;28;20029;-73
2021/03/10 01:51:57;;;;;;;10.35;6.65;;;;;;;;;;5030899;28;20028;-74
2021/03/10 01:54:23;;;;;;;12.63;7.00;;;;;;;;;;5031079;28;20021;-70
2021/03/10 01:56:49;;;;;;;11.07;6.25;;;;;;;;;;5029782;28;20072;-74
2021/03/10 01:59:15;;;;;;;10.60;6.25;;;;;;;;;;5030980;28;20032;-73
2021/03/10 02:01:42;;;;;;;11.73;6.20;;;;;;;;;;5031490;28;20049;-70
2021/03/10 02:04:08;;;;;;;9.57;5.93;;;;;;;;;;5029693;28;20021;-69
2021/03/10 02:06:50;;;;;;;10.88;5.78;;;;;;;;;;5029601;28;20025;-70
2021/03/10 02:09:25;;;;;;;10.20;5.65;;;;;;;;;;5033607;28;20413;-70
2021/03/10 02:12:00;;;;;;;9.02;5.50;;;;;;;;;;5034707;28;20022;-71
2021/03/10 02:14:43;;;;;;;10.35;6.10;;;;;;;;;;5039123;28;20021;-71
2021/03/10 02:17:12;;;;;;;8.70;5.22;;;;;;;;;;5053661;28;20032;-70
2021/03/10 02:19:53;;;;;;;10.30;5.63;;;;;;;;;;5054580;28;20017;-70
2021/03/10 02:22:37;;;;;;;8.90;5.45;;;;;;;;;;5053237;28;20408;-73
2021/03/10 02:25:23;;;;;;;9.18;5.00;;;;;;;;;;5054521;28;20009;-74
2021/03/10 02:27:52;;;;;;;10.02;5.28;;;;;;;;;;5054273;28;20037;-70
2021/03/10 02:30:20;;;;;;;10.40;5.45;;;;;;;;;;5053242;28;20028;-71
2021/03/10 02:32:54;;;;;;;10.15;5.82;;;;;;;;;;5054411;28;20032;-70
2021/03/10 02:35:21;;;;;;;11.88;5.65;;;;;;;;;;5039300;28;20036;-69
2021/03/10 02:37:47;;;;;;;10.38;5.50;;;;;;;;;;5034354;28;20485;-70
2021/03/10 02:40:14;;;;;;;9.90;5.85;;;;;;;;;;5034396;28;20071;-72
2021/03/10 02:42:41;;;;;;;9.10;5.55;;;;;;;;;;5034500;28;20030;-70
2021/03/10 02:45:08;;;;;;;10.70;5.90;;;;;;;;;;5034378;28;20025;-72
2021/03/10 02:47:35;;;;;;;10.40;5.75;;;;;;;;;;5032926;28;20524;-73
2021/03/10 02:50:01;;;;;;;8.98;5.20;;;;;;;;;;5034064;28;20448;-71
2021/03/10 02:52:28;;;;;;;10.05;6.13;;;;;;;;;;5034713;28;20021;-69
2021/03/10 02:54:54;;;;;;;9.90;5.60;;;;;;;;;;5034292;28;20060;-70
2021/03/10 02:57:20;;;;;;;9.13;5.22;;;;;;;;;;5034026;28;20113;-70
2021/03/10 02:59:47;;;;;;;10.65;5.68;;;;;;;;;;5033631;28;20028;-74
2021/03/10 03:02:16;;;;;;;10.68;5.97;;;;;;;;;;5033718;28;20140;-73
2021/03/10 03:04:43;;;;;;;11.00;6.05;;;;;;;;;;5033956;28;20013;-70
2021/03/10 03:07:10;;;;;;;9.07;5.10;;;;;;;;;;5033627;28;20037;-72
2021/03/10 03:09:36;;;;;;;9.77;5.35;;;;;;;;;;5034089;28;20030;-70
2021/03/10 03:12:04;;;;;;;9.52;5.40;;;;;;;;;;5033708;28;20033;-70
2021/03/10 03:14:30;;;;;;;10.35;6.10;;;;;;;;;;5038491;28;20017;-71
2021/03/10 03:16:57;;;;;;;9.00;5.57;;;;;;;;;;5053604;28;20025;-74
2021/03/10 03:19:23;;;;;;;10.95;5.55;;;;;;;;;;5051695;28;20020;-71
2021/03/10 03:21:49;;;;;;;10.25;5.88;;;;;;;;;;5051951;28;20501;-70
2021/03/10 03:24:17;;;;;;;10.55;5.32;;;;;;;;;;5053304;28;20380;-73
2021/03/10 03:26:44;;;;;;;11.85;5.70;;;;;;;;;;5035113;28;20036;-71
2021/03/10 03:29:11;;;;;;;10.32;5.38;;;;;;;;;;5033570;28;20055;-70
2021/03/10 03:31:37;;;;;;;9.98;5.13;;;;;;;;;;5033285;28;20033;-67
2021/03/10 03:34:04;;;;;;;11.18;5.53;;;;;;;;;;5033063;28;20021;-68
2021/03/10 03:36:31;;;;;;;9.85;5.82;;;;;;;;;;5033362;28;20054;-67
2021/03/10 03:38:57;;;;;;;10.88;5.38;;;;;;;;;;5033260;28;20105;-71
2021/03/10 03:41:23;;;;;;;10.98;6.00;;;;;;;;;;5033215;28;20018;-67
2021/03/10 03:43:49;;;;;;;9.65;5.85;;;;;;;;;;5032082;28;20033;-71
2021/03/10 03:46:15;;;;;;;10.88;6.13;;;;;;;;;;5033128;28;20013;-71
2021/03/10 03:48:41;;;;;;;11.25;5.82;;;;;;;;;;5031745;28;20494;-68
2021/03/10 03:51:26;;;;;;;9.82;5.80;;;;;;;;;;5033258;28;20026;-69
2021/03/10 03:53:57;;;;;;;10.07;5.70;;;;;;;;;;5031777;28;20090;-69
2021/03/10 03:56:23;;;;;;;9.43;5.47;;;;;;;;;;5032957;28;20064;-71
2021/03/10 03:58:49;;;;;;;11.63;5.75;;;;;;;;;;5032182;28;20018;-68
2021/03/10 04:01:15;;;;;;;10.00;5.57;;;;;;;;;;5031635;28;20133;-68
2021/03/10 04:03:41;;;;;;;10.88;5.55;;;;;;;;;;5031397;28;20103;-67
2021/03/10 04:06:07;;;;;;;10.50;5.28;;;;;;;;;;5031550;28;20127;-69
2021/03/10 04:08:34;;;;;;;8.68;4.72;;;;;;;;;;5032674;28;20519;-69
2021/03/10 04:11:00;;;;;;;9.88;6.15;;;;;;;;;;5032514;28;20021;-69
2021/03/10 04:13:26;;;;;;;11.15;5.80;;;;;;;;;;5032652;28;20026;-68
2021/03/10 04:15:52;;;;;;;10.13;5.35;;;;;;;;;;5047519;28;20056;-70
2021/03/10 04:18:18;;;;;;;9.73;5.10;;;;;;;;;;5052589;28;20021;-68
2021/03/10 04:20:44;;;;;;;10.23;5.40;;;;;;;;;;5052408;28;20464;-68
2021/03/10 04:23:10;;;;;;;9.00;5.65;;;;;;;;;;5052511;28;20026;-69
2021/03/10 04:25:36;;;;;;;10.77;5.40;;;;;;;;;;5052267;28;20065;-73
2021/03/10 04:28:02;;;;;;;10.95;5.95;;;;;;;;;;5051973;28;20063;-68
2021/03/10 04:30:28;;;;;;;9.43;5.65;;;;;;;;;;5051690;28;20100;-72
2021/03/10 04:32:54;;;;;;;9.65;5.55;;;;;;;;;;5051415;28;20032;-69
2021/03/10 04:35:21;;;;;;;9.85;5.68;;;;;;;;;;5052262;28;20053;-71
2021/03/10 04:37:48;;;;;;;11.45;6.30;;;;;;;;;;5051993;28;20017;-68
2021/03/10 04:40:14;;;;;;;9.38;5.65;;;;;;;;;;5052086;28;20021;-68
2021/03/10 04:42:41;;;;;;;10.82;5.90;;;;;;;;;;5052007;28;20017;-69
2021/03/10 04:45:09;;;;;;;10.10;5.97;;;;;;;;;;5052064;28;20385;-70
2021/03/10 04:47:35;;;;;;;9.38;5.20;;;;;;;;;;5051886;28;20462;-72
2021/03/10 04:50:02;;;;;;;10.13;5.60;;;;;;;;;;5050926;28;20461;-68
2021/03/10 04:52:28;;;;;;;10.93;6.13;;;;;;;;;;5051822;28;20039;-69
2021/03/10 04:54:54;;;;;;;9.90;5.90;;;;;;;;;;5051730;28;20021;-68
2021/03/10 04:57:20;;;;;;;11.02;5.82;;;;;;;;;;5051849;28;20019;-69
2021/03/10 04:59:46;;;;;;;10.30;6.20;;;;;;;;;;5050261;28;20029;-68
2021/03/10 05:02:12;;;;;;;12.50;6.47;;;;;;;;;;5050451;28;20095;-69
2021/03/10 05:04:39;;;;;;;9.05;5.53;;;;;;;;;;5050503;28;20031;-69
2021/03/10 05:07:05;;;;;;;8.98;5.38;;;;;;;;;;5050493;28;20039;-72
2021/03/10 05:09:31;;;;;;;9.25;5.60;;;;;;;;;;5051274;28;20025;-68
2021/03/10 05:11:57;;;;;;;9.95;5.90;;;;;;;;;;5051362;28;20033;-67
2021/03/10 05:14:24;;;;;;;11.13;6.68;;;;;;;;;;5051096;28;20045;-69
2021/03/10 05:16:50;;;;;;;10.38;5.53;;;;;;;;;;5051396;28;20021;-68
2021/03/10 05:19:17;;;;;;;9.80;5.78;;;;;;;;;;5051387;28;20049;-69
2021/03/10 05:21:43;;;;;;;10.75;6.30;;;;;;;;;;5051184;28;20371;-68
2021/03/10 05:24:10;;;;;;;10.70;5.93;;;;;;;;;;5050554;28;20112;-71
2021/03/10 05:26:40;;;;;;;11.20;6.30;;;;;;;;;;5049941;28;20511;-69
2021/03/10 05:29:06;;;;;;;10.57;5.97;;;;;;;;;;5049828;28;20033;-72
2021/03/10 05:31:32;;;;;;;12.18;6.25;;;;;;;;;;5051080;28;20053;-72
2021/03/10 05:33:58;;;;;;;10.13;6.07;;;;;;;;;;5049743;28;20024;-71
2021/03/10 05:36:25;;;;;;;10.20;6.18;;;;;;;;;;5051041;28;20082;-72
2021/03/10 05:38:51;;;;;;;9.55;5.60;;;;;;;;;;5049635;28;20025;-68
2021/03/10 05:41:18;;;;;;;10.57;5.97;;;;;;;;;;5049816;28;20032;-68
2021/03/10 05:43:44;;;;;;;12.38;6.15;;;;;;;;;;5050682;28;20052;-67
2021/03/10 05:46:11;;;;;;;9.82;5.43;;;;;;;;;;5050990;28;20036;-71
2021/03/10 05:48:37;;;;;;;10.35;5.75;;;;;;;;;;5050326;28;20036;-68
2021/03/10 05:51:06;;;;;;;10.50;5.90;;;;;;;;;;5050805;28;20175;-68
2021/03/10 05:53:38;;;;;;;12.65;6.60;;;;;;;;;;5050933;28;20081;-71
2021/03/10 05:56:05;;;;;;;10.48;5.90;;;;;;;;;;5050930;28;20287;-69
2021/03/10 05:58:31;;;;;;;9.88;5.90;;;;;;;;;;5042588;28;20355;-71
2021/03/10 06:00:57;;;;;;;10.32;5.95;;;;;;;;;;5029768;28;20406;-67
2021/03/10 06:03:23;;;;;;;13.60;6.18;;;;;;;;;;5029709;28;20026;-68
2021/03/10 06:06:03;;;;;;;11.02;6.25;;;;;;;;;;5030811;28;20025;-69
2021/03/10 06:08:30;;;;;;;11.02;5.90;;;;;;;;;;5030527;28;20025;-70
2021/03/10 06:10:56;;;;;;;10.68;6.10;;;;;;;;;;5030765;28;20026;-68
2021/03/10 06:13:26;;;;;;;13.07;5.85;;;;;;;;;;5029633;28;20032;-69
2021/03/10 06:15:54;;;;;;;10.90;5.80;;;;;;;;;;5044615;28;20056;-68
2021/03/10 06:18:23;;;;;;;9.45;5.63;;;;;;;;;;5049387;28;20230;-69
2021/03/10 06:20:49;;;;;;;13.00;6.35;;;;;;;;;;5049271;28;20091;-73
2021/03/10 06:23:15;;;;;;;11.18;5.68;;;;;;;;;;5049436;28;20025;-72
2021/03/10 06:25:41;;;;;;;12.48;6.05;;;;;;;;;;5049315;28;20036;-70
2021/03/10 06:28:08;;;;;;;10.52;6.50;;;;;;;;;;5050275;28;20025;-69
2021/03/10 06:30:36;;;;;;;9.63;5.65;;;;;;;;;;5050274;28;20025;-70
2021/03/10 06:33:02;;;;;;;9.45;5.72;;;;;;;;;;5049593;28;20020;-69
2021/03/10 06:35:29;;;;;;;10.13;5.72;;;;;;;;;;5050430;28;20025;-71
2021/03/10 06:38:07;;;;;;;10.68;6.05;;;;;;;;;;5049136;28;20120;-68
2021/03/10 06:40:33;;;;;;;15.73;5.78;;;;;;;;;;5049111;28;20021;-71
2021/03/10 06:43:00;;;;;;;10.20;5.68;;;;;;;;;;5050451;28;20017;-69
2021/03/10 06:45:30;;;;;;;9.82;5.72;;;;;;;;;;5050305;28;20108;-68
2021/03/10 06:47:56;;;;;;;12.75;6.07;;;;;;;;;;5050163;28;20033;-69
2021/03/10 06:50:32;;;;;;;11.35;5.57;;;;;;;;;;5049611;28;20492;-70
2021/03/10 06:52:58;;;;;;;9.90;5.93;;;;;;;;;;5050886;28;20068;-68
2021/03/10 06:55:24;;;;;;;12.70;6.28;;;;;;;;;;5052762;28;20020;-70
2021/03/10 06:57:52;;;;;;;10.00;5.75;;;;;;;;;;5053815;28;20385;-71
2021/03/10 07:00:22;;;;;;;11.32;5.68;;;;;;;;;;5053864;28;20527;-71
2021/03/10 07:02:48;;;;;;;9.65;5.75;;;;;;;;;;5054049;28;20127;-71
2021/03/10 07:05:15;;;;;;;9.25;5.38;;;;;;;;;;5052515;28;20024;-71
2021/03/10 07:07:42;;;;;;;10.77;5.75;;;;;;;;;;5052812;28;20443;-71
2021/03/10 07:10:08;;;;;;;8.40;5.32;;;;;;;;;;5053682;28;20024;-71
2021/03/10 07:12:34;;;;;;;12.85;5.10;;;;;;;;;;5053780;28;20083;-71
2021/03/10 07:15:04;;;;;;;11.80;5.13;;;;;;;;;;5053277;28;20021;-71
2021/03/10 07:17:32;;;;;;;9.23;5.22;;;;;;;;;;5053690;28;20017;-71
2021/03/10 07:19:58;;;;;;;8.57;5.63;;;;;;;;;;5052479;28;20033;-68
2021/03/10 07:22:39;;;;;;;9.80;5.13;;;;;;;;;;5053347;28;20071;-68
2021/03/10 07:25:20;;;;;;;9.15;5.47;;;;;;;;;;5033384;28;20537;-68
2021/03/10 07:28:00;;;;;;;10.98;5.53;;;;;;;;;;5033119;28;20124;-70
2021/03/10 07:30:40;;;;;;;8.77;4.82;;;;;;;;;;5033204;28;20017;-68
2021/03/10 07:33:07;;;;;;;9.48;4.88;;;;;;;;;;5033287;28;20022;-70
2021/03/10 07:35:33;;;;;;;9.40;5.10;;;;;;;;;;5033423;28;20093;-70
2021/03/10 07:37:59;;;;;;;9.15;4.63;;;;;;;;;;5031567;28;20026;-69
2021/03/10 07:40:25;;;;;;;10.13;4.80;;;;;;;;;;5033632;28;20036;-69
2021/03/10 07:42:55;;;;;;;11.55;4.95;;;;;;;;;;5031942;28;20021;-72
2021/03/10 07:45:22;;;;;;;10.15;4.47;;;;;;;;;;5033168;28;20043;-72
2021/03/10 07:47:58;;;;;;;9.48;4.80;;;;;;;;;;5032666;28;20036;-71
2021/03/10 07:50:25;;;;;;;8.32;4.68;;;;;;;;;;5032945;28;20029;-70
2021/03/10 07:52:55;;;;;;;10.52;6.13;;;;;;;;;;5033103;28;20029;-69
2021/03/10 07:55:21;;;;;;;14.57;5.63;;;;;;;;;;5033076;28;20018;-69
2021/03/10 07:57:54;;;;;;;10.63;5.43;;;;;;;;;;5033390;28;20490;-68
2021/03/10 08:00:21;;;;;;;10.85;5.07;;;;;;;;;;5031429;28;20022;-69
2021/03/10 08:02:48;;;;;;;18.55;5.32;;;;;;;;;;5031330;28;20389;-69
2021/03/10 08:05:21;;;;;;;9.60;5.57;;;;;;;;;;5031911;28;20028;-71
2021/03/10 08:07:48;;;;;;;9.75;5.40;;;;;;;;;;5032379;28;20504;-71
2021/03/10 08:10:24;;;;;;;10.60;5.57;;;;;;;;;;5031365;28;20026;-70
2021/03/10 08:12:50;;;;;;;11.73;5.70;;;;;;;;;;5032567;28;20067;-69
2021/03/10 08:15:20;;;;;;;9.90;4.95;;;;;;;;;;5044237;28;20040;-71
2021/03/10 08:17:47;;;;;;;10.10;5.65;;;;;;;;;;5052373;28;20099;-69
2021/03/10 08:20:13;;;;;;;10.73;4.97;;;;;;;;;;5052273;28;20032;-70
2021/03/10 08:22:39;;;;;;;10.88;5.63;;;;;;;;;;5052355;28;20025;-72
2021/03/10 08:25:06;;;;;;;10.70;5.45;;;;;;;;;;5052361;28;20025;-70
2021/03/10 08:27:32;;;;;;;11.55;5.57;;;;;;;;;;5052558;28;20036;-68
2021/03/10 08:29:58;;;;;;;10.38;5.47;;;;;;;;;;5052059;28;20092;-70
2021/03/10 08:32:25;;;;;;;9.50;5.10;;;;;;;;;;5049791;28;20337;-70
2021/03/10 08:34:59;;;;;;;9.95;5.43;;;;;;;;;;5052288;28;20047;-70
2021/03/10 08:37:25;;;;;;;10.50;4.95;;;;;;;;;;5052048;28;20032;-71
2021/03/10 08:39:51;;;;;;;8.85;5.07;;;;;;;;;;5051856;28;20032;-69
2021/03/10 08:42:20;;;;;;;8.95;4.80;;;;;;;;;;5051921;28;20082;-69
2021/03/10 08:44:47;;;;;;;7.60;4.80;;;;;;;;;;5052011;28;20484;-70
2021/03/10 08:47:14;;;;;;;9.48;5.18;;;;;;;;;;5051830;28;20045;-70
2021/03/10 08:49:42;;;;;;;10.10;4.93;;;;;;;;;;5034164;28;20493;-72
2021/03/10 08:52:16;;;;;;;10.05;4.28;;;;;;;;;;5031927;28;20048;-71
2021/03/10 08:54:46;;;;;;;10.07;5.10;;;;;;;;;;5031956;28;20060;-70
2021/03/10 08:57:12;;;;;;;8.88;4.90;;;;;;;;;;5031923;28;20030;-70
2021/03/10 08:59:39;;;;;;;11.63;4.80;;;;;;;;;;5031874;28;20429;-69
2021/03/10 09:02:05;;;;;;;14.70;4.72;;;;;;;;;;5031636;28;20037;-71
2021/03/10 09:04:31;;;;;;;9.18;4.10;;;;;;;;;;5031802;28;20458;-69
2021/03/10 09:06:58;;;;;;;13.40;4.82;;;;;;;;;;5031525;28;20036;-69
2021/03/10 09:09:25;;;;;;;9.77;4.68;;;;;;;;;;5030124;28;20026;-69
2021/03/10 09:11:51;;;;;;;9.70;5.13;;;;;;;;;;5031265;28;20021;-71
2021/03/10 09:14:18;;;;;;;7.95;4.55;;;;;;;;;;5034357;28;20052;-72
2021/03/10 09:17:00;;;;;;;10.73;5.30;;;;;;;;;;5051349;28;20040;-71
2021/03/10 09:19:29;;;;;;;8.80;4.53;;;;;;;;;;5051186;28;20028;-72
2021/03/10 09:22:07;;;;;;;10.30;4.15;;;;;;;;;;5050007;28;20393;-71
2021/03/10 09:24:33;;;;;;;8.52;4.68;;;;;;;;;;5049823;28;20021;-73
2021/03/10 09:26:59;;;;;;;8.35;4.03;;;;;;;;;;5050823;28;20047;-69
2021/03/10 09:29:25;;;;;;;7.30;4.10;;;;;;;;;;5051091;28;20029;-72
2021/03/10 09:31:57;;;;;;;9.05;4.68;;;;;;;;;;5049624;28;20474;-70
2021/03/10 09:34:24;;;;;;;7.97;4.47;;;;;;;;;;5051329;28;20032;-70
2021/03/10 09:36:52;;;;;;;8.20;4.50;;;;;;;;;;5049864;28;20017;-71
2021/03/10 09:39:18;;;;;;;8.70;4.85;;;;;;;;;;5050479;28;20021;-70
2021/03/10 09:41:48;;;;;;;9.35;4.63;;;;;;;;;;5051150;28;20048;-71
2021/03/10 09:44:14;;;;;;;8.98;5.45;;;;;;;;;;5049716;28;20029;-70
2021/03/10 09:46:44;;;;;;;10.45;5.25;;;;;;;;;;5050789;28;20028;-71
2021/03/10 09:49:10;;;;;;;10.02;5.40;;;;;;;;;;5050853;28;20032;-70
2021/03/10 09:51:45;;;;;;;9.70;5.57;;;;;;;;;;5051040;28;20200;-71
2021/03/10 09:54:12;;;;;;;9.32;5.57;;;;;;;;;;5051056;28;20043;-69
2021/03/10 09:56:40;;;;;;;8.55;4.35;;;;;;;;;;5049928;28;20025;-70
2021/03/10 09:59:11;;;;;;;9.90;4.35;;;;;;;;;;5050815;28;20542;-68
2021/03/10 10:01:44;;;;;;;8.15;4.57;;;;;;;;;;5049520;28;20478;-69
2021/03/10 10:04:11;;;;;;;9.02;4.72;;;;;;;;;;5050835;28;20036;-70
2021/03/10 10:06:37;;;;;;;9.73;4.57;;;;;;;;;;5049520;28;20520;-69
2021/03/10 10:09:03;;;;;;;7.55;4.40;;;;;;;;;;5050716;28;20523;-68
2021/03/10 10:11:30;;;;;;;8.75;4.82;;;;;;;;;;5050993;28;20021;-67
2021/03/10 10:13:56;;;;;;;6.85;4.55;;;;;;;;;;5049359;28;20474;-67
2021/03/10 10:16:22;;;;;;;8.35;5.07;;;;;;;;;;5050621;28;20025;-67
2021/03/10 10:18:49;;;;;;;7.97;4.50;;;;;;;;;;5049103;28;20029;-68
2021/03/10 10:21:17;;;;;;;9.10;4.47;;;;;;;;;;5050438;28;20523;-70
2021/03/10 10:23:43;;;;;;;6.90;3.72;;;;;;;;;;5050589;28;20035;-67
2021/03/10 10:26:09;;;;;;;5.57;3.78;;;;;;;;;;5050629;28;20021;-67
2021/03/10 10:28:35;;;;;;;8.88;4.78;;;;;;;;;;5051863;28;20040;-71
2021/03/10 10:31:01;;;;;;;8.05;4.22;;;;;;;;;;5041796;28;20025;-68
2021/03/10 10:33:27;;;;;;;7.95;4.97;;;;;;;;;;5033014;28;20036;-70
2021/03/10 10:35:53;;;;;;;7.13;3.95;;;;;;;;;;5034291;28;20048;-66
2021/03/10 10:38:20;;;;;;;8.52;4.28;;;;;;;;;;5033108;28;20026;-69
2021/03/10 10:40:46;;;;;;;7.20;3.50;;;;;;;;;;5034395;28;20036;-66
2021/03/10 10:43:12;;;;;;;7.15;4.43;;;;;;;;;;5033011;28;20025;-67
2021/03/10 10:45:38;;;;;;;6.32;3.60;;;;;;;;;;5036765;28;20155;-70
2021/03/10 10:48:04;;;;;;;6.32;3.78;;;;;;;;;;5039669;28;20034;-66
2021/03/10 10:50:30;;;;;;;9.57;4.60;;;;;;;;;;5034246;28;20025;-69
2021/03/10 10:52:57;;;;;;;8.68;4.57;;;;;;;;;;5034242;28;20032;-67
2021/03/10 10:55:23;;;;;;;8.40;3.97;;;;;;;;;;5032836;28;20045;-68
2021/03/10 10:57:49;;;;;;;7.93;3.95;;;;;;;;;;5034004;28;20036;-75
2021/03/10 11:00:19;;;;;;;7.25;3.78;;;;;;;;;;5034029;28;20017;-71
2021/03/10 11:02:45;;;;;;;6.13;3.67;;;;;;;;;;5040342;28;20024;-69
2021/03/10 11:05:12;;;;;;;6.15;3.65;;;;;;;;;;5039813;28;20136;-69
2021/03/10 11:07:38;;;;;;;5.68;3.60;;;;;;;;;;5033601;28;20033;-70
2021/03/10 11:10:05;;;;;;;11.48;4.53;;;;;;;;;;5034005;28;20377;-71
2021/03/10 11:12:31;;;;;;;9.45;3.83;;;;;;;;;;5033844;28;20032;-69
2021/03/10 11:14:57;;;;;;;7.53;4.45;;;;;;;;;;5043373;28;20025;-73
2021/03/10 11:17:23;;;;;;;6.30;4.00;;;;;;;;;;5053722;28;20087;-71
2021/03/10 11:19:49;;;;;;;6.80;4.20;;;;;;;;;;5047027;28;20030;-69
2021/03/10 11:22:16;;;;;;;6.10;3.50;;;;;;;;;;5033909;28;20061;-70
2021/03/10 11:24:43;;;;;;;5.97;3.72;;;;;;;;;;5033538;28;20018;-70
2021/03/10 11:27:09;;;;;;;7.00;4.05;;;;;;;;;;5033483;28;20047;-69
2021/03/10 11:29:35;;;;;;;7.93;3.95;;;;;;;;;;5033334;28;20159;-72
2021/03/10 11:32:01;;;;;;;5.05;3.40;;;;;;;;;;5033414;28;20081;-71
2021/03/10 11:34:28;;;;;;;6.07;3.72;;;;;;;;;;5033244;28;20482;-69
2021/03/10 11:36:54;;;;;;;5.70;3.70;;;;;;;;;;5031896;28;20158;-69
2021/03/10 11:39:20;;;;;;;7.95;3.42;;;;;;;;;;5033306;28;20029;-67
2021/03/10 11:41:46;;;;;;;5.65;3.60;;;;;;;;;;5048608;28;20029;-70
2021/03/10 11:44:12;;;;;;;5.63;3.25;;;;;;;;;;5053338;28;20021;-68
2021/03/10 11:46:38;;;;;;;6.22;3.95;;;;;;;;;;5053094;28;20151;-68
2021/03/10 11:49:04;;;;;;;6.22;3.60;;;;;;;;;;5052792;28;20039;-69
2021/03/10 11:51:31;;;;;;;5.18;3.28;;;;;;;;;;5051655;28;20025;-68
2021/03/10 11:53:57;;;;;;;7.07;3.88;;;;;;;;;;5053139;28;20047;-67
2021/03/10 11:56:23;;;;;;;7.30;3.67;;;;;;;;;;5037440;28;20025;-68
2021/03/10 11:58:49;;;;;;;6.35;3.97;;;;;;;;;;5031650;28;20018;-67
2021/03/10 12:01:15;;;;;;;7.25;3.90;;;;;;;;;;5033026;28;20565;-66
2021/03/10 12:03:42;;;;;;;8.98;4.10;;;;;;;;;;5032752;28;20425;-69
2021/03/10 12:06:08;;;;;;;9.18;4.18;;;;;;;;;;5033027;28;20075;-69
2021/03/10 12:08:34;;;;;;;6.35;4.00;;;;;;;;;;5032571;28;20379;-70
2021/03/10 12:11:00;;;;;;;16.42;4.10;;;;;;;;;;5033068;28;20469;-71
2021/03/10 12:13:27;;;;;;;10.68;4.05;;;;;;;;;;5032542;28;20049;-76
2021/03/10 12:15:56;;;;;;;10.85;4.10;;;;;;;;;;5050340;28;20028;-69
2021/03/10 12:18:22;;;;;;;13.80;4.43;;;;;;;;;;5052606;28;20477;-70
2021/03/10 12:20:49;;;;;;;8.57;3.90;;;;;;;;;;5052791;28;20033;-69
2021/03/10 12:23:18;;;;;;;11.63;4.35;;;;;;;;;;5052048;28;20433;-70
2021/03/10 12:25:44;;;;;;;9.60;4.00;;;;;;;;;;5051606;28;20449;-69
2021/03/10 12:28:11;;;;;;;7.97;4.13;;;;;;;;;;5051442;28;20538;-69
2021/03/10 12:30:37;;;;;;;7.25;3.90;;;;;;;;;;5035531;28;20022;-69
2021/03/10 12:33:03;;;;;;;13.68;4.63;;;;;;;;;;5032753;28;20357;-69
2021/03/10 12:35:29;;;;;;;10.57;4.30;;;;;;;;;;5033112;28;20088;-70
2021/03/10 12:37:56;;;;;;;13.93;4.28;;;;;;;;;;5032872;28;20099;-69
2021/03/10 12:40:23;;;;;;;8.38;4.03;;;;;;;;;;5032572;28;20026;-73
2021/03/10 12:42:49;;;;;;;6.53;3.88;;;;;;;;;;5052052;28;20029;-68
2021/03/10 12:45:15;;;;;;;13.75;4.95;;;;;;;;;;5052369;28;20056;-70
2021/03/10 12:47:41;;;;;;;9.80;4.90;;;;;;;;;;5034084;28;20088;-67
2021/03/10 12:50:07;;;;;;;8.07;4.13;;;;;;;;;;5032767;28;20472;-68
2021/03/10 12:52:33;;;;;;;12.10;3.22;;;;;;;;;;5031998;28;20053;-71
2021/03/10 12:54:59;;;;;;;7.53;3.95;;;;;;;;;;5032289;28;20017;-72
2021/03/10 12:57:26;;;;;;;9.13;4.07;;;;;;;;;;5030979;28;20028;-74
2021/03/10 12:59:52;;;;;;;9.77;3.92;;;;;;;;;;5038863;28;20065;-75
2021/03/10 13:02:18;;;;;;;10.85;4.13;;;;;;;;;;5060670;28;20008;-67
2021/03/10 13:04:44;;;;;;;6.43;3.60;;;;;;;;;;5049929;28;20112;-71
2021/03/10 13:07:10;;;;;;;7.32;4.20;;;;;;;;;;5051294;28;20021;-72
2021/03/10 13:09:36;;;;;;;11.73;4.00;;;;;;;;;;5051929;28;20043;-68
2021/03/10 13:12:03;;;;;;;7.78;4.28;;;;;;;;;;5051698;28;20138;-67
2021/03/10 13:14:29;;;;;;;7.68;4.13;;;;;;;;;;5049778;28;20025;-68
2021/03/10 13:16:55;;;;;;;7.57;3.90;;;;;;;;;;5051271;28;20021;-76
2021/03/10 13:19:21;;;;;;;7.32;4.20;;;;;;;;;;5049604;28;20056;-72
2021/03/10 13:21:47;;;;;;;13.43;4.65;;;;;;;;;;5042377;28;20045;-71
2021/03/10 13:24:13;;;;;;;13.23;4.70;;;;;;;;;;5050244;28;20021;-75
2021/03/10 13:26:40;;;;;;;11.38;4.90;;;;;;;;;;5050012;28;20021;-76
2021/03/10 13:29:07;;;;;;;9.27;5.00;;;;;;;;;;5050513;28;20056;-78
2021/03/10 13:31:33;;;;;;;8.85;4.88;;;;;;;;;;5050331;28;20029;-70
2021/03/10 13:33:59;;;;;;;13.95;5.75;;;;;;;;;;5052071;28;20017;-69
2021/03/10 13:36:25;;;;;;;13.52;5.00;;;;;;;;;;5050364;28;20027;-70
2021/03/10 13:38:51;;;;;;;12.82;5.88;;;;;;;;;;5044837;28;20535;-75
2021/03/10 13:41:17;;;;;;;10.82;6.80;;;;;;;;;;5051484;28;20068;-75
2021/03/10 13:43:43;;;;;;;9.93;6.28;;;;;;;;;;5050294;28;20032;-75
2021/03/10 13:46:09;;;;;;;11.15;7.03;;;;;;;;;;5051712;28;20028;-74
2021/03/10 13:48:35;;;;;;;11.52;6.35;;;;;;;;;;5050952;28;20504;-76
2021/03/10 13:51:01;;;;;;;12.43;6.57;;;;;;;;;;5051011;28;20927;-74
2021/03/10 13:53:29;;;;;;;11.80;6.55;;;;;;;;;;5051004;28;20025;-71
2021/03/10 13:55:55;;;;;;;11.50;6.47;;;;;;;;;;5039805;28;20052;-74
2021/03/10 13:58:21;;;;;;;11.27;6.18;;;;;;;;;;5050620;28;20017;-68
2021/03/10 14:00:48;;;;;;;11.40;5.80;;;;;;;;;;5051133;28;20025;-69
2021/03/10 14:03:14;;;;;;;8.77;5.38;;;;;;;;;;5050490;28;20104;-67
2021/03/10 14:05:40;;;;;;;12.23;5.68;;;;;;;;;;5053722;28;20025;-70
2021/03/10 14:08:06;;;;;;;9.07;5.70;;;;;;;;;;5055125;28;20493;-70
2021/03/10 14:10:32;;;;;;;9.52;5.53;;;;;;;;;;5054543;28;20073;-72
2021/03/10 14:12:59;;;;;;;9.20;5.57;;;;;;;;;;5035500;28;20033;-72
2021/03/10 14:15:25;;;;;;;13.82;6.35;;;;;;;;;;5048626;28;20024;-73
2021/03/10 14:17:51;;;;;;;17.13;6.63;;;;;;;;;;5055039;28;20113;-74
2021/03/10 14:20:20;;;;;;;11.55;5.78;;;;;;;;;;5053400;28;20112;-70
2021/03/10 14:22:48;;;;;;;12.07;7.07;;;;;;;;;;5054695;28;20029;-70
2021/03/10 14:25:16;;;;;;;9.32;5.50;;;;;;;;;;5053547;28;20493;-75
2021/03/10 14:27:42;;;;;;;10.57;5.78;;;;;;;;;;5052429;28;20463;-73
2021/03/10 14:30:09;;;;;;;9.48;5.65;;;;;;;;;;5054800;28;20075;-76
2021/03/10 14:32:35;;;;;;;10.65;6.18;;;;;;;;;;5054427;28;20025;-75
2021/03/10 14:35:02;;;;;;;8.07;5.28;;;;;;;;;;5054265;28;20071;-72
2021/03/10 14:37:28;;;;;;;9.57;5.65;;;;;;;;;;5054311;28;20053;-70